Davilla, Texas
Current Conditions -  °F | °C
As of 6:58 PM on Saturday 25 Oct 2014 (Local Time) from KGRK Reporting Station
Clear Clear  
Wind Chill: 79°   Ceiling: Unl
Heat Index: 80°   Visibility: 10mi
Dew Point: 58°   Wind: 8mph
Humidity: 50%   Direction: 140°SE
Pressure: 30.08"   Gusts: NA
Location:  30.79°N, 97.28°W
Report Text: KGRK 252358Z AUTO 14007KT 10SM CLR 26/15 A3008 RMK AO2 SLP178 T02590147 10301 20259 56004
Loading
Personal Weather Stations






























Interactive Weather Map New forecast layout! Learn more

10-Day Weather Forecast

Advertisements
Track Severe Weather on mobile